sensor_id;sensor_type;location;lat;lon;timestamp;P1;durP1;ratioP1;P2;durP2;ratioP2
4311;SDS011;2169;49.086;9.284;2023-04-06T00:00:22;4.00;;;3.08;;
4311;SDS011;2169;49.086;9.284;2023-04-06T00:02:49;4.40;;;4.10;;
4311;SDS011;2169;49.086;9.284;2023-04-06T00:05:17;4.05;;;3.75;;
4311;SDS011;2169;49.086;9.284;2023-04-06T00:07:45;7.55;;;5.00;;
4311;SDS011;2169;49.086;9.284;2023-04-06T00:10:12;5.78;;;3.10;;
4311;SDS011;2169;49.086;9.284;2023-04-06T00:12:39;4.68;;;3.20;;
4311;SDS011;2169;49.086;9.284;2023-04-06T00:15:06;6.55;;;4.78;;
4311;SDS011;2169;49.086;9.284;2023-04-06T00:17:33;6.60;;;2.75;;
4311;SDS011;2169;49.086;9.284;2023-04-06T00:20:00;4.07;;;3.65;;
4311;SDS011;2169;49.086;9.284;2023-04-06T00:22:27;4.85;;;3.92;;
4311;SDS011;2169;49.086;9.284;2023-04-06T00:24:56;4.47;;;4.07;;
4311;SDS011;2169;49.086;9.284;2023-04-06T00:27:23;2.80;;;2.60;;
4311;SDS011;2169;49.086;9.284;2023-04-06T00:29:49;5.22;;;4.70;;
4311;SDS011;2169;49.086;9.284;2023-04-06T00:32:16;2.40;;;2.20;;
4311;SDS011;2169;49.086;9.284;2023-04-06T00:34:43;3.45;;;3.25;;
4311;SDS011;2169;49.086;9.284;2023-04-06T00:37:10;4.72;;;3.67;;
4311;SDS011;2169;49.086;9.284;2023-04-06T00:39:37;4.20;;;4.00;;
4311;SDS011;2169;49.086;9.284;2023-04-06T00:42:07;5.65;;;4.50;;
4311;SDS011;2169;49.086;9.284;2023-04-06T00:44:37;6.32;;;2.85;;
4311;SDS011;2169;49.086;9.284;2023-04-06T00:47:04;5.68;;;4.63;;
4311;SDS011;2169;49.086;9.284;2023-04-06T00:49:31;4.63;;;2.67;;
4311;SDS011;2169;49.086;9.284;2023-04-06T00:51:58;2.95;;;2.85;;
4311;SDS011;2169;49.086;9.284;2023-04-06T00:54:26;5.38;;;3.30;;
4311;SDS011;2169;49.086;9.284;2023-04-06T00:56:53;7.35;;;5.55;;
4311;SDS011;2169;49.086;9.284;2023-04-06T00:59:21;8.65;;;5.50;;
4311;SDS011;2169;49.086;9.284;2023-04-06T01:01:48;3.65;;;3.45;;
4311;SDS011;2169;49.086;9.284;2023-04-06T01:04:15;4.45;;;4.15;;
4311;SDS011;2169;49.086;9.284;2023-04-06T01:06:42;3.90;;;2.78;;
4311;SDS011;2169;49.086;9.284;2023-04-06T01:09:08;4.18;;;2.95;;
4311;SDS011;2169;49.086;9.284;2023-04-06T01:11:35;4.55;;;4.15;;
4311;SDS011;2169;49.086;9.284;2023-04-06T01:14:03;6.15;;;4.47;;
4311;SDS011;2169;49.086;9.284;2023-04-06T01:16:31;5.05;;;4.40;;
4311;SDS011;2169;49.086;9.284;2023-04-06T01:18:58;4.70;;;4.40;;
4311;SDS011;2169;49.086;9.284;2023-04-06T01:21:25;3.88;;;3.67;;
4311;SDS011;2169;49.086;9.284;2023-04-06T01:23:53;5.63;;;4.60;;
4311;SDS011;2169;49.086;9.284;2023-04-06T01:26:20;5.63;;;4.30;;
4311;SDS011;2169;49.086;9.284;2023-04-06T01:28:47;6.20;;;5.43;;
4311;SDS011;2169;49.086;9.284;2023-04-06T01:31:14;7.28;;;5.75;;
4311;SDS011;2169;49.086;9.284;2023-04-06T01:33:40;6.18;;;4.75;;
4311;SDS011;2169;49.086;9.284;2023-04-06T01:36:07;4.00;;;3.60;;
4311;SDS011;2169;49.086;9.284;2023-04-06T01:38:34;5.70;;;3.72;;
4311;SDS011;2169;49.086;9.284;2023-04-06T01:41:03;6.43;;;4.93;;
4311;SDS011;2169;49.086;9.284;2023-04-06T01:43:30;6.50;;;4.68;;
4311;SDS011;2169;49.086;9.284;2023-04-06T01:45:57;6.35;;;5.28;;
4311;SDS011;2169;49.086;9.284;2023-04-06T01:48:23;5.57;;;3.97;;
4311;SDS011;2169;49.086;9.284;2023-04-06T01:50:50;6.22;;;4.78;;
4311;SDS011;2169;49.086;9.284;2023-04-06T01:53:17;4.28;;;3.65;;
4311;SDS011;2169;49.086;9.284;2023-04-06T01:55:44;4.55;;;4.15;;
4311;SDS011;2169;49.086;9.284;2023-04-06T01:58:13;6.70;;;6.00;;
4311;SDS011;2169;49.086;9.284;2023-04-06T02:00:40;5.10;;;4.68;;
4311;SDS011;2169;49.086;9.284;2023-04-06T02:03:06;5.35;;;4.22;;
4311;SDS011;2169;49.086;9.284;2023-04-06T02:05:34;5.20;;;4.22;;
4311;SDS011;2169;49.086;9.284;2023-04-06T02:08:03;4.57;;;4.15;;
4311;SDS011;2169;49.086;9.284;2023-04-06T02:10:30;7.80;;;5.15;;
4311;SDS011;2169;49.086;9.284;2023-04-06T02:12:57;6.07;;;4.93;;
4311;SDS011;2169;49.086;9.284;2023-04-06T02:15:25;5.43;;;4.97;;
4311;SDS011;2169;49.086;9.284;2023-04-06T02:17:52;4.85;;;4.03;;
4311;SDS011;2169;49.086;9.284;2023-04-06T02:20:19;3.65;;;3.42;;
4311;SDS011;2169;49.086;9.284;2023-04-06T02:22:46;4.75;;;4.35;;
4311;SDS011;2169;49.086;9.284;2023-04-06T02:25:13;5.78;;;4.60;;
4311;SDS011;2169;49.086;9.284;2023-04-06T02:27:40;4.50;;;4.18;;
4311;SDS011;2169;49.086;9.284;2023-04-06T02:30:07;5.90;;;4.07;;
4311;SDS011;2169;49.086;9.284;2023-04-06T02:32:36;5.47;;;4.82;;
4311;SDS011;2169;49.086;9.284;2023-04-06T02:35:03;5.72;;;5.20;;
4311;SDS011;2169;49.086;9.284;2023-04-06T02:37:30;4.97;;;4.20;;
4311;SDS011;2169;49.086;9.284;2023-04-06T02:39:57;4.00;;;3.60;;
4311;SDS011;2169;49.086;9.284;2023-04-06T02:42:24;5.55;;;4.03;;
4311;SDS011;2169;49.086;9.284;2023-04-06T02:44:50;5.60;;;5.07;;
4311;SDS011;2169;49.086;9.284;2023-04-06T02:47:17;3.67;;;3.40;;
4311;SDS011;2169;49.086;9.284;2023-04-06T02:49:45;11.77;;;4.90;;
4311;SDS011;2169;49.086;9.284;2023-04-06T02:52:12;2.67;;;2.28;;
4311;SDS011;2169;49.086;9.284;2023-04-06T02:54:39;5.75;;;4.60;;
4311;SDS011;2169;49.086;9.284;2023-04-06T02:57:07;5.10;;;4.72;;
4311;SDS011;2169;49.086;9.284;2023-04-06T02:59:34;3.95;;;3.65;;
4311;SDS011;2169;49.086;9.284;2023-04-06T03:02:01;6.85;;;4.57;;
4311;SDS011;2169;49.086;9.284;2023-04-06T03:04:27;5.65;;;4.50;;
4311;SDS011;2169;49.086;9.284;2023-04-06T03:06:56;3.63;;;3.33;;
4311;SDS011;2169;49.086;9.284;2023-04-06T03:09:22;3.85;;;3.55;;
4311;SDS011;2169;49.086;9.284;2023-04-06T03:11:49;5.30;;;4.95;;
4311;SDS011;2169;49.086;9.284;2023-04-06T03:14:16;3.92;;;3.65;;
4311;SDS011;2169;49.086;9.284;2023-04-06T03:16:46;4.57;;;4.20;;
4311;SDS011;2169;49.086;9.284;2023-04-06T03:19:13;3.50;;;3.20;;
4311;SDS011;2169;49.086;9.284;2023-04-06T03:21:40;4.07;;;3.78;;
4311;SDS011;2169;49.086;9.284;2023-04-06T03:24:09;3.38;;;2.60;;
4311;SDS011;2169;49.086;9.284;2023-04-06T03:26:35;2.58;;;2.40;;
4311;SDS011;2169;49.086;9.284;2023-04-06T03:29:02;8.02;;;3.55;;
4311;SDS011;2169;49.086;9.284;2023-04-06T03:31:29;5.85;;;3.78;;
4311;SDS011;2169;49.086;9.284;2023-04-06T03:33:56;8.30;;;4.47;;
4311;SDS011;2169;49.086;9.284;2023-04-06T03:36:24;6.45;;;4.28;;
4311;SDS011;2169;49.086;9.284;2023-04-06T03:38:51;9.50;;;5.57;;
4311;SDS011;2169;49.086;9.284;2023-04-06T03:41:20;3.85;;;3.65;;
4311;SDS011;2169;49.086;9.284;2023-04-06T03:43:47;12.95;;;5.13;;
4311;SDS011;2169;49.086;9.284;2023-04-06T03:46:14;4.53;;;4.13;;
4311;SDS011;2169;49.086;9.284;2023-04-06T03:48:41;9.90;;;3.95;;
4311;SDS011;2169;49.086;9.284;2023-04-06T03:51:08;6.22;;;4.07;;
4311;SDS011;2169;49.086;9.284;2023-04-06T03:53:35;4.55;;;3.42;;
4311;SDS011;2169;49.086;9.284;2023-04-06T03:56:03;4.07;;;3.60;;
4311;SDS011;2169;49.086;9.284;2023-04-06T03:58:31;5.15;;;4.05;;
4311;SDS011;2169;49.086;9.284;2023-04-06T04:00:58;5.20;;;4.32;;
4311;SDS011;2169;49.086;9.284;2023-04-06T04:03:25;4.05;;;3.75;;
4311;SDS011;2169;49.086;9.284;2023-04-06T04:05:53;5.22;;;3.22;;
4311;SDS011;2169;49.086;9.284;2023-04-06T04:08:20;5.88;;;4.43;;
4311;SDS011;2169;49.086;9.284;2023-04-06T04:10:47;5.13;;;3.95;;
4311;SDS011;2169;49.086;9.284;2023-04-06T04:13:13;4.38;;;3.92;;
4311;SDS011;2169;49.086;9.284;2023-04-06T04:15:42;3.75;;;3.65;;
4311;SDS011;2169;49.086;9.284;2023-04-06T04:18:08;3.63;;;3.30;;
4311;SDS011;2169;49.086;9.284;2023-04-06T04:20:35;5.85;;;4.50;;
4311;SDS011;2169;49.086;9.284;2023-04-06T04:23:02;3.33;;;3.00;;
4311;SDS011;2169;49.086;9.284;2023-04-06T04:25:29;3.20;;;2.90;;
4311;SDS011;2169;49.086;9.284;2023-04-06T04:27:56;3.55;;;3.25;;
4311;SDS011;2169;49.086;9.284;2023-04-06T04:30:22;3.25;;;2.92;;
4311;SDS011;2169;49.086;9.284;2023-04-06T04:32:51;5.47;;;4.50;;
4311;SDS011;2169;49.086;9.284;2023-04-06T04:35:18;5.60;;;3.65;;
4311;SDS011;2169;49.086;9.284;2023-04-06T04:37:44;7.95;;;4.53;;
4311;SDS011;2169;49.086;9.284;2023-04-06T04:40:11;4.75;;;4.35;;
4311;SDS011;2169;49.086;9.284;2023-04-06T04:42:38;5.72;;;4.97;;
4311;SDS011;2169;49.086;9.284;2023-04-06T04:45:06;4.47;;;4.18;;
4311;SDS011;2169;49.086;9.284;2023-04-06T04:47:33;5.05;;;4.78;;
4311;SDS011;2169;49.086;9.284;2023-04-06T04:50:01;8.48;;;4.65;;
4311;SDS011;2169;49.086;9.284;2023-04-06T04:52:28;5.35;;;3.90;;
4311;SDS011;2169;49.086;9.284;2023-04-06T04:54:55;5.00;;;4.68;;
4311;SDS011;2169;49.086;9.284;2023-04-06T04:57:22;3.95;;;3.65;;
4311;SDS011;2169;49.086;9.284;2023-04-06T04:59:48;4.55;;;3.53;;
4311;SDS011;2169;49.086;9.284;2023-04-06T05:02:16;3.42;;;2.92;;
4311;SDS011;2169;49.086;9.284;2023-04-06T05:04:42;2.78;;;2.67;;
4311;SDS011;2169;49.086;9.284;2023-04-06T05:07:11;3.00;;;2.25;;
4311;SDS011;2169;49.086;9.284;2023-04-06T05:09:38;3.83;;;3.53;;
4311;SDS011;2169;49.086;9.284;2023-04-06T05:12:05;4.68;;;3.78;;
4311;SDS011;2169;49.086;9.284;2023-04-06T05:14:32;3.53;;;3.20;;
4311;SDS011;2169;49.086;9.284;2023-04-06T05:16:59;7.35;;;4.18;;
4311;SDS011;2169;49.086;9.284;2023-04-06T05:19:26;7.90;;;4.65;;
4311;SDS011;2169;49.086;9.284;2023-04-06T05:21:52;8.40;;;5.10;;
4311;SDS011;2169;49.086;9.284;2023-04-06T05:24:21;5.65;;;5.00;;
4311;SDS011;2169;49.086;9.284;2023-04-06T05:26:48;12.18;;;2.70;;
4311;SDS011;2169;49.086;9.284;2023-04-06T05:29:15;5.75;;;5.30;;
4311;SDS011;2169;49.086;9.284;2023-04-06T05:31:42;8.02;;;4.82;;
4311;SDS011;2169;49.086;9.284;2023-04-06T05:34:09;8.00;;;4.85;;
4311;SDS011;2169;49.086;9.284;2023-04-06T05:36:37;5.15;;;3.50;;
4311;SDS011;2169;49.086;9.284;2023-04-06T05:39:05;4.55;;;3.65;;
4311;SDS011;2169;49.086;9.284;2023-04-06T05:41:33;7.85;;;4.60;;
4311;SDS011;2169;49.086;9.284;2023-04-06T05:44:00;7.30;;;5.90;;
4311;SDS011;2169;49.086;9.284;2023-04-06T05:46:27;22.58;;;5.55;;
4311;SDS011;2169;49.086;9.284;2023-04-06T05:48:54;7.32;;;5.38;;
4311;SDS011;2169;49.086;9.284;2023-04-06T05:51:21;6.30;;;5.60;;
4311;SDS011;2169;49.086;9.284;2023-04-06T05:53:48;13.30;;;4.32;;
4311;SDS011;2169;49.086;9.284;2023-04-06T05:56:15;9.43;;;5.22;;
4311;SDS011;2169;49.086;9.284;2023-04-06T05:58:43;6.18;;;5.03;;
4311;SDS011;2169;49.086;9.284;2023-04-06T06:01:10;8.35;;;6.00;;
4311;SDS011;2169;49.086;9.284;2023-04-06T06:03:36;8.05;;;5.40;;
4311;SDS011;2169;49.086;9.284;2023-04-06T06:06:04;8.20;;;5.70;;
4311;SDS011;2169;49.086;9.284;2023-04-06T06:08:31;7.07;;;4.82;;
4311;SDS011;2169;49.086;9.284;2023-04-06T06:10:58;7.70;;;5.93;;
4311;SDS011;2169;49.086;9.284;2023-04-06T06:13:25;9.43;;;6.82;;
4311;SDS011;2169;49.086;9.284;2023-04-06T06:15:53;7.32;;;6.13;;
4311;SDS011;2169;49.086;9.284;2023-04-06T06:18:20;15.35;;;6.45;;
4311;SDS011;2169;49.086;9.284;2023-04-06T06:20:47;6.32;;;5.65;;
4311;SDS011;2169;49.086;9.284;2023-04-06T06:23:14;7.05;;;5.05;;
4311;SDS011;2169;49.086;9.284;2023-04-06T06:25:41;12.15;;;5.90;;
4311;SDS011;2169;49.086;9.284;2023-04-06T06:28:07;6.00;;;5.50;;
4311;SDS011;2169;49.086;9.284;2023-04-06T06:30:34;4.03;;;3.50;;
4311;SDS011;2169;49.086;9.284;2023-04-06T06:33:02;8.05;;;6.40;;
4311;SDS011;2169;49.086;9.284;2023-04-06T06:35:29;7.25;;;6.65;;
4311;SDS011;2169;49.086;9.284;2023-04-06T06:37:56;5.32;;;4.10;;
4311;SDS011;2169;49.086;9.284;2023-04-06T06:40:23;14.70;;;7.38;;
4311;SDS011;2169;49.086;9.284;2023-04-06T06:42:51;10.65;;;8.98;;
4311;SDS011;2169;49.086;9.284;2023-04-06T06:45:18;17.42;;;5.90;;
4311;SDS011;2169;49.086;9.284;2023-04-06T06:47:45;11.50;;;6.53;;
4311;SDS011;2169;49.086;9.284;2023-04-06T06:50:13;6.78;;;6.07;;
4311;SDS011;2169;49.086;9.284;2023-04-06T06:52:40;12.90;;;6.38;;
4311;SDS011;2169;49.086;9.284;2023-04-06T06:55:08;7.38;;;5.95;;
4311;SDS011;2169;49.086;9.284;2023-04-06T06:57:35;12.00;;;5.97;;
4311;SDS011;2169;49.086;9.284;2023-04-06T07:00:03;5.55;;;5.20;;
4311;SDS011;2169;49.086;9.284;2023-04-06T07:02:33;11.38;;;5.45;;
4311;SDS011;2169;49.086;9.284;2023-04-06T07:05:01;5.30;;;4.80;;
4311;SDS011;2169;49.086;9.284;2023-04-06T07:07:31;10.45;;;5.45;;
4311;SDS011;2169;49.086;9.284;2023-04-06T07:09:58;7.28;;;5.30;;
4311;SDS011;2169;49.086;9.284;2023-04-06T07:12:25;5.53;;;4.90;;
4311;SDS011;2169;49.086;9.284;2023-04-06T07:14:52;6.45;;;5.53;;
4311;SDS011;2169;49.086;9.284;2023-04-06T07:17:19;16.25;;;6.25;;
4311;SDS011;2169;49.086;9.284;2023-04-06T07:19:46;15.23;;;6.25;;
4311;SDS011;2169;49.086;9.284;2023-04-06T07:22:13;5.65;;;5.20;;
4311;SDS011;2169;49.086;9.284;2023-04-06T07:24:41;12.95;;;7.18;;
4311;SDS011;2169;49.086;9.284;2023-04-06T07:27:08;8.15;;;6.15;;
4311;SDS011;2169;49.086;9.284;2023-04-06T07:29:35;11.77;;;6.80;;
4311;SDS011;2169;49.086;9.284;2023-04-06T07:32:02;12.63;;;6.93;;
4311;SDS011;2169;49.086;9.284;2023-04-06T07:34:29;5.47;;;4.88;;
4311;SDS011;2169;49.086;9.284;2023-04-06T07:36:55;12.68;;;6.38;;
4311;SDS011;2169;49.086;9.284;2023-04-06T07:39:22;20.80;;;7.05;;
4311;SDS011;2169;49.086;9.284;2023-04-06T07:41:52;8.60;;;5.33;;
4311;SDS011;2169;49.086;9.284;2023-04-06T07:44:19;7.97;;;6.80;;
4311;SDS011;2169;49.086;9.284;2023-04-06T07:46:46;6.70;;;5.80;;
4311;SDS011;2169;49.086;9.284;2023-04-06T07:49:13;7.30;;;6.10;;
4311;SDS011;2169;49.086;9.284;2023-04-06T07:51:40;21.43;;;6.30;;
4311;SDS011;2169;49.086;9.284;2023-04-06T07:54:07;7.03;;;5.00;;
4311;SDS011;2169;49.086;9.284;2023-04-06T07:56:34;7.60;;;6.73;;
4311;SDS011;2169;49.086;9.284;2023-04-06T07:59:02;14.97;;;6.83;;
4311;SDS011;2169;49.086;9.284;2023-04-06T08:01:29;9.23;;;6.43;;
4311;SDS011;2169;49.086;9.284;2023-04-06T08:03:56;7.60;;;4.90;;
4311;SDS011;2169;49.086;9.284;2023-04-06T08:06:23;7.03;;;6.40;;
4311;SDS011;2169;49.086;9.284;2023-04-06T08:08:51;7.50;;;6.53;;
4311;SDS011;2169;49.086;9.284;2023-04-06T08:11:18;15.83;;;5.70;;
4311;SDS011;2169;49.086;9.284;2023-04-06T08:13:45;5.97;;;4.60;;
4311;SDS011;2169;49.086;9.284;2023-04-06T08:16:13;7.67;;;6.17;;
4311;SDS011;2169;49.086;9.284;2023-04-06T08:18:40;14.93;;;7.03;;
4311;SDS011;2169;49.086;9.284;2023-04-06T08:21:06;10.40;;;5.20;;
4311;SDS011;2169;49.086;9.284;2023-04-06T08:23:33;9.87;;;5.70;;
4311;SDS011;2169;49.086;9.284;2023-04-06T08:26:00;6.10;;;5.30;;
4311;SDS011;2169;49.086;9.284;2023-04-06T08:28:27;5.93;;;5.33;;
4311;SDS011;2169;49.086;9.284;2023-04-06T08:30:54;7.03;;;5.50;;
4311;SDS011;2169;49.086;9.284;2023-04-06T08:33:22;6.93;;;5.13;;
4311;SDS011;2169;49.086;9.284;2023-04-06T08:35:49;8.03;;;5.17;;
4311;SDS011;2169;49.086;9.284;2023-04-06T08:38:16;9.90;;;6.63;;
4311;SDS011;2169;49.086;9.284;2023-04-06T08:40:43;7.53;;;5.50;;
4311;SDS011;2169;49.086;9.284;2023-04-06T08:43:13;10.40;;;5.80;;
4311;SDS011;2169;49.086;9.284;2023-04-06T08:45:40;8.03;;;6.00;;
4311;SDS011;2169;49.086;9.284;2023-04-06T08:48:08;10.83;;;5.80;;
4311;SDS011;2169;49.086;9.284;2023-04-06T08:50:37;7.17;;;6.30;;
4311;SDS011;2169;49.086;9.284;2023-04-06T08:53:05;8.47;;;4.77;;
4311;SDS011;2169;49.086;9.284;2023-04-06T08:55:34;9.40;;;5.73;;
4311;SDS011;2169;49.086;9.284;2023-04-06T08:58:01;11.73;;;5.13;;
4311;SDS011;2169;49.086;9.284;2023-04-06T09:00:30;10.77;;;6.40;;
4311;SDS011;2169;49.086;9.284;2023-04-06T09:02:57;6.90;;;6.10;;
4311;SDS011;2169;49.086;9.284;2023-04-06T09:05:25;7.13;;;6.23;;
4311;SDS011;2169;49.086;9.284;2023-04-06T09:07:54;6.07;;;5.37;;
4311;SDS011;2169;49.086;9.284;2023-04-06T09:10:21;5.63;;;5.17;;
4311;SDS011;2169;49.086;9.284;2023-04-06T09:12:50;11.80;;;6.10;;
4311;SDS011;2169;49.086;9.284;2023-04-06T09:15:18;12.73;;;7.90;;
4311;SDS011;2169;49.086;9.284;2023-04-06T09:17:45;10.03;;;6.07;;
4311;SDS011;2169;49.086;9.284;2023-04-06T09:20:12;11.77;;;6.30;;
4311;SDS011;2169;49.086;9.284;2023-04-06T09:22:39;8.43;;;5.63;;
4311;SDS011;2169;49.086;9.284;2023-04-06T09:25:09;6.40;;;5.77;;
4311;SDS011;2169;49.086;9.284;2023-04-06T09:27:44;8.20;;;5.30;;
4311;SDS011;2169;49.086;9.284;2023-04-06T09:30:11;7.53;;;6.30;;
4311;SDS011;2169;49.086;9.284;2023-04-06T09:32:44;12.03;;;5.70;;
4311;SDS011;2169;49.086;9.284;2023-04-06T09:35:14;7.87;;;6.50;;
4311;SDS011;2169;49.086;9.284;2023-04-06T09:37:41;5.67;;;5.10;;
4311;SDS011;2169;49.086;9.284;2023-04-06T09:40:10;6.20;;;5.60;;
4311;SDS011;2169;49.086;9.284;2023-04-06T09:42:40;11.33;;;5.93;;
4311;SDS011;2169;49.086;9.284;2023-04-06T09:45:08;11.30;;;6.50;;
4311;SDS011;2169;49.086;9.284;2023-04-06T09:47:35;6.60;;;5.40;;
4311;SDS011;2169;49.086;9.284;2023-04-06T09:50:05;11.97;;;5.33;;
4311;SDS011;2169;49.086;9.284;2023-04-06T09:52:37;7.83;;;6.17;;
4311;SDS011;2169;49.086;9.284;2023-04-06T09:55:06;7.30;;;5.13;;
4311;SDS011;2169;49.086;9.284;2023-04-06T09:57:37;11.57;;;5.80;;
4311;SDS011;2169;49.086;9.284;2023-04-06T10:00:12;3.80;;;3.50;;
4311;SDS011;2169;49.086;9.284;2023-04-06T10:02:45;10.93;;;6.60;;
4311;SDS011;2169;49.086;9.284;2023-04-06T10:05:19;19.00;;;7.10;;
4311;SDS011;2169;49.086;9.284;2023-04-06T10:07:49;11.33;;;5.43;;
4311;SDS011;2169;49.086;9.284;2023-04-06T10:10:19;10.33;;;5.87;;
4311;SDS011;2169;49.086;9.284;2023-04-06T10:12:48;5.43;;;4.90;;
4311;SDS011;2169;49.086;9.284;2023-04-06T10:15:15;8.17;;;5.20;;
4311;SDS011;2169;49.086;9.284;2023-04-06T10:17:42;6.53;;;5.93;;
4311;SDS011;2169;49.086;9.284;2023-04-06T10:20:10;7.57;;;6.87;;
4311;SDS011;2169;49.086;9.284;2023-04-06T10:22:41;8.17;;;5.63;;
4311;SDS011;2169;49.086;9.284;2023-04-06T10:25:25;12.00;;;5.63;;
4311;SDS011;2169;49.086;9.284;2023-04-06T10:28:00;9.93;;;6.80;;
4311;SDS011;2169;49.086;9.284;2023-04-06T10:30:27;12.97;;;6.07;;
4311;SDS011;2169;49.086;9.284;2023-04-06T10:32:54;10.87;;;6.13;;
4311;SDS011;2169;49.086;9.284;2023-04-06T10:35:21;6.27;;;5.67;;
4311;SDS011;2169;49.086;9.284;2023-04-06T10:37:52;7.90;;;5.63;;
4311;SDS011;2169;49.086;9.284;2023-04-06T10:40:26;6.33;;;5.77;;
4311;SDS011;2169;49.086;9.284;2023-04-06T10:42:54;5.60;;;5.10;;
4311;SDS011;2169;49.086;9.284;2023-04-06T10:45:33;15.60;;;6.43;;
4311;SDS011;2169;49.086;9.284;2023-04-06T10:48:12;7.10;;;5.20;;
4311;SDS011;2169;49.086;9.284;2023-04-06T10:50:39;8.23;;;5.13;;
4311;SDS011;2169;49.086;9.284;2023-04-06T10:53:06;5.53;;;4.10;;
4311;SDS011;2169;49.086;9.284;2023-04-06T10:55:33;5.10;;;4.63;;
4311;SDS011;2169;49.086;9.284;2023-04-06T10:58:01;8.90;;;6.13;;
4311;SDS011;2169;49.086;9.284;2023-04-06T11:00:27;8.33;;;6.00;;
4311;SDS011;2169;49.086;9.284;2023-04-06T11:03:00;5.33;;;4.50;;
4311;SDS011;2169;49.086;9.284;2023-04-06T11:05:27;5.43;;;4.50;;
4311;SDS011;2169;49.086;9.284;2023-04-06T11:07:54;5.70;;;5.00;;
4311;SDS011;2169;49.086;9.284;2023-04-06T11:10:22;7.23;;;5.40;;
4311;SDS011;2169;49.086;9.284;2023-04-06T11:12:52;5.27;;;4.27;;
4311;SDS011;2169;49.086;9.284;2023-04-06T11:15:19;5.60;;;5.00;;
4311;SDS011;2169;49.086;9.284;2023-04-06T11:17:46;9.30;;;5.27;;
4311;SDS011;2169;49.086;9.284;2023-04-06T11:20:15;4.40;;;4.00;;
4311;SDS011;2169;49.086;9.284;2023-04-06T11:22:49;5.07;;;4.57;;
4311;SDS011;2169;49.086;9.284;2023-04-06T11:25:17;7.03;;;5.20;;
4311;SDS011;2169;49.086;9.284;2023-04-06T11:27:44;8.93;;;4.80;;
4311;SDS011;2169;49.086;9.284;2023-04-06T11:30:12;5.17;;;4.67;;
4311;SDS011;2169;49.086;9.284;2023-04-06T11:32:39;8.63;;;5.23;;
4311;SDS011;2169;49.086;9.284;2023-04-06T11:35:10;7.50;;;5.70;;
4311;SDS011;2169;49.086;9.284;2023-04-06T11:37:40;5.70;;;4.93;;
4311;SDS011;2169;49.086;9.284;2023-04-06T11:40:09;5.43;;;4.83;;
4311;SDS011;2169;49.086;9.284;2023-04-06T11:42:36;5.33;;;4.80;;
4311;SDS011;2169;49.086;9.284;2023-04-06T11:45:04;9.73;;;4.73;;
4311;SDS011;2169;49.086;9.284;2023-04-06T11:47:33;7.13;;;4.60;;
4311;SDS011;2169;49.086;9.284;2023-04-06T11:50:07;5.87;;;4.93;;
4311;SDS011;2169;49.086;9.284;2023-04-06T11:52:36;7.13;;;5.40;;
4311;SDS011;2169;49.086;9.284;2023-04-06T11:55:12;6.00;;;5.33;;
4311;SDS011;2169;49.086;9.284;2023-04-06T11:57:40;9.23;;;5.23;;
4311;SDS011;2169;49.086;9.284;2023-04-06T12:00:08;5.37;;;4.33;;
4311;SDS011;2169;49.086;9.284;2023-04-06T12:02:36;5.90;;;5.00;;
4311;SDS011;2169;49.086;9.284;2023-04-06T12:05:03;6.20;;;4.93;;
4311;SDS011;2169;49.086;9.284;2023-04-06T12:07:32;6.70;;;5.07;;
4311;SDS011;2169;49.086;9.284;2023-04-06T12:09:59;6.53;;;5.70;;
4311;SDS011;2169;49.086;9.284;2023-04-06T12:12:28;13.10;;;5.30;;
4311;SDS011;2169;49.086;9.284;2023-04-06T12:14:56;11.90;;;6.63;;
4311;SDS011;2169;49.086;9.284;2023-04-06T12:17:23;7.00;;;5.00;;
4311;SDS011;2169;49.086;9.284;2023-04-06T12:19:50;9.47;;;5.83;;
4311;SDS011;2169;49.086;9.284;2023-04-06T12:22:17;19.33;;;6.03;;
4311;SDS011;2169;49.086;9.284;2023-04-06T12:24:44;11.33;;;7.27;;
4311;SDS011;2169;49.086;9.284;2023-04-06T12:27:11;14.77;;;6.63;;
4311;SDS011;2169;49.086;9.284;2023-04-06T12:29:39;8.47;;;6.43;;
4311;SDS011;2169;49.086;9.284;2023-04-06T12:32:06;18.83;;;7.30;;
4311;SDS011;2169;49.086;9.284;2023-04-06T12:34:33;11.50;;;5.93;;
4311;SDS011;2169;49.086;9.284;2023-04-06T12:37:00;13.47;;;7.00;;
4311;SDS011;2169;49.086;9.284;2023-04-06T12:39:27;11.63;;;7.50;;
4311;SDS011;2169;49.086;9.284;2023-04-06T12:41:55;6.67;;;5.80;;
4311;SDS011;2169;49.086;9.284;2023-04-06T12:44:23;12.93;;;6.97;;
4311;SDS011;2169;49.086;9.284;2023-04-06T12:46:51;9.40;;;6.07;;
4311;SDS011;2169;49.086;9.284;2023-04-06T12:49:18;11.67;;;7.17;;
4311;SDS011;2169;49.086;9.284;2023-04-06T12:51:46;8.83;;;5.90;;
4311;SDS011;2169;49.086;9.284;2023-04-06T12:54:13;7.17;;;5.77;;
4311;SDS011;2169;49.086;9.284;2023-04-06T12:56:40;11.50;;;6.53;;
4311;SDS011;2169;49.086;9.284;2023-04-06T12:59:07;11.63;;;6.43;;
4311;SDS011;2169;49.086;9.284;2023-04-06T13:01:34;14.20;;;6.10;;
4311;SDS011;2169;49.086;9.284;2023-04-06T13:04:02;7.93;;;6.17;;
4311;SDS011;2169;49.086;9.284;2023-04-06T13:06:29;13.40;;;7.00;;
4311;SDS011;2169;49.086;9.284;2023-04-06T13:08:56;8.60;;;6.40;;
4311;SDS011;2169;49.086;9.284;2023-04-06T13:11:23;8.63;;;6.53;;
4311;SDS011;2169;49.086;9.284;2023-04-06T13:13:51;14.00;;;6.17;;
4311;SDS011;2169;49.086;9.284;2023-04-06T13:16:18;10.43;;;6.47;;
4311;SDS011;2169;49.086;9.284;2023-04-06T13:18:45;8.57;;;5.47;;
4311;SDS011;2169;49.086;9.284;2023-04-06T13:21:14;10.17;;;7.00;;
4311;SDS011;2169;49.086;9.284;2023-04-06T13:23:42;7.07;;;5.80;;
4311;SDS011;2169;49.086;9.284;2023-04-06T13:26:09;5.97;;;4.90;;
4311;SDS011;2169;49.086;9.284;2023-04-06T13:28:36;8.57;;;6.40;;
4311;SDS011;2169;49.086;9.284;2023-04-06T13:31:04;9.57;;;5.87;;
4311;SDS011;2169;49.086;9.284;2023-04-06T13:33:31;6.37;;;4.93;;
4311;SDS011;2169;49.086;9.284;2023-04-06T13:35:59;10.80;;;7.60;;
4311;SDS011;2169;49.086;9.284;2023-04-06T13:38:27;8.57;;;5.77;;
4311;SDS011;2169;49.086;9.284;2023-04-06T13:40:54;9.37;;;6.90;;
4311;SDS011;2169;49.086;9.284;2023-04-06T13:43:21;6.77;;;5.13;;
4311;SDS011;2169;49.086;9.284;2023-04-06T13:45:49;6.70;;;5.90;;
4311;SDS011;2169;49.086;9.284;2023-04-06T13:48:16;5.10;;;4.60;;
4311;SDS011;2169;49.086;9.284;2023-04-06T13:50:43;8.17;;;5.67;;
4311;SDS011;2169;49.086;9.284;2023-04-06T13:53:10;9.53;;;6.30;;
4311;SDS011;2169;49.086;9.284;2023-04-06T13:55:38;7.57;;;6.47;;
4311;SDS011;2169;49.086;9.284;2023-04-06T13:58:05;9.43;;;5.97;;
4311;SDS011;2169;49.086;9.284;2023-04-06T14:00:32;8.60;;;5.67;;
4311;SDS011;2169;49.086;9.284;2023-04-06T14:02:59;11.20;;;6.47;;
4311;SDS011;2169;49.086;9.284;2023-04-06T14:05:26;11.07;;;6.23;;
4311;SDS011;2169;49.086;9.284;2023-04-06T14:07:56;12.00;;;6.03;;
4311;SDS011;2169;49.086;9.284;2023-04-06T14:10:23;7.73;;;6.17;;
4311;SDS011;2169;49.086;9.284;2023-04-06T14:12:53;9.50;;;7.03;;
4311;SDS011;2169;49.086;9.284;2023-04-06T14:15:20;9.60;;;6.67;;
4311;SDS011;2169;49.086;9.284;2023-04-06T14:17:48;7.03;;;6.00;;
4311;SDS011;2169;49.086;9.284;2023-04-06T14:20:16;9.87;;;6.20;;
4311;SDS011;2169;49.086;9.284;2023-04-06T14:22:43;7.40;;;5.43;;
4311;SDS011;2169;49.086;9.284;2023-04-06T14:25:09;14.97;;;6.27;;
4311;SDS011;2169;49.086;9.284;2023-04-06T14:27:37;8.30;;;5.57;;
4311;SDS011;2169;49.086;9.284;2023-04-06T14:30:06;8.63;;;5.87;;
4311;SDS011;2169;49.086;9.284;2023-04-06T14:32:34;8.53;;;6.03;;
4311;SDS011;2169;49.086;9.284;2023-04-06T14:35:01;13.93;;;8.40;;
4311;SDS011;2169;49.086;9.284;2023-04-06T14:37:28;8.70;;;5.10;;
4311;SDS011;2169;49.086;9.284;2023-04-06T14:39:55;10.10;;;6.50;;
4311;SDS011;2169;49.086;9.284;2023-04-06T14:42:21;8.43;;;6.40;;
4311;SDS011;2169;49.086;9.284;2023-04-06T14:44:48;6.13;;;5.03;;
4311;SDS011;2169;49.086;9.284;2023-04-06T14:47:16;7.10;;;5.20;;
4311;SDS011;2169;49.086;9.284;2023-04-06T14:49:45;7.70;;;6.37;;
4311;SDS011;2169;49.086;9.284;2023-04-06T14:52:12;10.47;;;5.50;;
4311;SDS011;2169;49.086;9.284;2023-04-06T14:54:39;11.23;;;5.43;;
4311;SDS011;2169;49.086;9.284;2023-04-06T14:57:06;6.80;;;5.80;;
4311;SDS011;2169;49.086;9.284;2023-04-06T14:59:33;12.60;;;6.73;;
4311;SDS011;2169;49.086;9.284;2023-04-06T15:02:00;10.13;;;5.40;;
4311;SDS011;2169;49.086;9.284;2023-04-06T15:04:29;12.10;;;5.83;;
4311;SDS011;2169;49.086;9.284;2023-04-06T15:06:56;10.17;;;5.67;;
4311;SDS011;2169;49.086;9.284;2023-04-06T15:09:22;8.10;;;6.70;;
4311;SDS011;2169;49.086;9.284;2023-04-06T15:11:50;11.20;;;5.70;;
4311;SDS011;2169;49.086;9.284;2023-04-06T15:14:16;14.30;;;6.63;;